LEVD

Valladolid Airport

Valladolid, Spain
TAF LEVD 251100Z 2512/2612 VRB05KT CAVOK TX24/2515Z TN12/2606Z TEMPO 2519/2601 05010KT
Issued Valid From Valid To
Sep-25 @ 11:00 UTC
(4 hours ago)
Sep-25 @ 12:00 UTC
(3 hours ago)
Sep-26 @ 12:00 UTC
(in 21 hours)
Sep-25 @ 12:00 to Sep-26 @ 12:00
TAF LEVD 251100Z 2512/2612 VRB05KT CAVOK TX24/2515Z TN12/2606Z
Wind Visibility Clouds
Variable at 5 knots 10,000+ meters
  • No significant clouds
Temporary Sep-25 @ 19:00 to Sep-26 @ 01:00
TEMPO 2519/2601 05010KT
Wind
50° at 10 knots
TAF LEVD 251100Z 2512/2612 VRB05KT CAVOK TX24/2515Z TN12/2606Z TEMPO 2519/2601 05010KT
Issued Sep-25 @ 11:00 UTC
(4 hours ago)
Valid From Sep-25 @ 12:00 UTC
(3 hours ago)
Valid To Sep-26 @ 12:00 UTC
(in 21 hours)
Sep-25 @ 12:00 - Sep-26 @ 12:00
Wind Visibility
Variable at 5 knots 10,000+ meters
Clouds
  • No significant clouds
Temporary Sep-25 @ 19:00 - Sep-26 @ 01:00
Wind
50° at 10 knots